Hlavní strana
METAR-TAF:

METAR-TAF

Letiště :

Curtis L. Brown Jr. Field

Elizabethtown, Severní Karolína, Spojené státy americké

zeměpisná šířka: 34-36N, zeměpisná délka: 078-35W, výška: 40 m

Aktuální stav počasí

Zpráva byla vytvořena před 33 minutami, v 17:55 UTC
Západní vítr 15 kt s nárazy do 20 kt
Teplota 10°C
Vlhkost vzduchu 34%
Tlak 1016 hPa
Viditelnost: 16.1 km
Jasno

METAR: KEYF 271755Z AUTO 28015G20KT 10SM CLR 10/M05 A3001 RMK AO2 T01011052 10104 20057

Čas: 13:28 (18:28 UTC)


TAF: chybějící

Stav a předpovědi počasí z více než 4 000 letišť (zprávy METAR a TAF).

Červené a žluté tečky na mapě představují dostupné meteorologické stanice.

Když kurzor umístíte na tečku, zobrazí se název stanice.

Pak kliknutím zobrazíte stav a předpověď počasí.

Chcete-li změnit mapu, kliknutím na zelené tlačítko se znaménkem +mapu přiblížíte, kliknutím na zelené tlačítko se znaménkem – mapu oddálíte a kliknutím na zelené šipky přejdete na sousední mapy.


METAR-TAF: